createdAt,value
2022-11-04T00:03:12.798Z,95.08
2022-11-04T00:08:15.795Z,95.71
2022-11-04T00:13:17.452Z,95.56
2022-11-04T00:18:19.441Z,95.32
2022-11-04T00:23:22.807Z,95.93
2022-11-04T00:28:24.844Z,95.36
2022-11-04T00:33:27.424Z,96.48
2022-11-04T00:38:31.002Z,96.13
2022-11-04T00:43:32.891Z,96.02
2022-11-04T00:48:35.181Z,96.63
2022-11-04T00:53:38.154Z,97.44
2022-11-04T00:58:40.013Z,97.81
2022-11-04T01:03:41.945Z,97.99
2022-11-04T01:08:45.002Z,98.95
2022-11-04T01:13:50.106Z,99.18
2022-11-04T01:18:51.765Z,99.36
2022-11-04T01:23:55.285Z,99.89
2022-11-04T01:28:57.833Z,99.90
2022-11-04T01:33:59.801Z,99.32
2022-11-04T01:39:03.116Z,99.76
2022-11-04T01:44:46.589Z,99.67
2022-11-04T01:49:52.284Z,99.38
2022-11-04T01:54:59.914Z,99.59
2022-11-04T02:00:05.254Z,99.33
2022-11-04T02:05:07.795Z,99.79
2022-11-04T02:10:12.351Z,99.33
2022-11-04T02:15:14.463Z,99.27
2022-11-04T02:20:30.615Z,99.69
2022-11-04T02:26:08.001Z,99.43
2022-11-04T02:31:19.022Z,99.71
2022-11-04T02:36:30.514Z,100.00
2022-11-04T02:41:41.120Z,100.00
2022-11-04T02:46:51.270Z,100.00
2022-11-04T02:52:01.410Z,100.00
2022-11-04T02:57:07.733Z,100.00
2022-11-04T03:02:17.388Z,100.00
2022-11-04T03:07:24.966Z,100.00
2022-11-04T03:12:32.896Z,100.00
2022-11-04T03:17:43.997Z,100.00
2022-11-04T03:22:46.081Z,100.00
2022-11-04T03:27:54.566Z,100.00
2022-11-04T03:33:03.912Z,100.00
2022-11-04T03:38:05.931Z,100.00
2022-11-04T03:43:12.019Z,100.00
2022-11-04T03:48:15.410Z,100.00
2022-11-04T03:53:20.558Z,100.00
2022-11-04T03:58:33.783Z,100.00
2022-11-04T04:03:47.010Z,100.00
2022-11-04T04:08:53.471Z,100.00
2022-11-04T04:14:09.623Z,100.00
2022-11-04T04:19:16.735Z,100.00
2022-11-04T04:24:22.883Z,100.00
2022-11-04T04:29:26.155Z,100.00
2022-11-04T04:34:31.606Z,100.00
2022-11-04T04:39:38.905Z,100.00
2022-11-04T04:44:42.867Z,100.00
2022-11-04T04:49:51.400Z,100.00
2022-11-04T04:54:53.707Z,100.00
2022-11-04T04:59:55.319Z,100.00
2022-11-04T05:04:58.332Z,100.00
2022-11-04T05:10:00.373Z,100.00
2022-11-04T05:15:02.009Z,100.00
2022-11-04T05:20:05.854Z,100.00
2022-11-04T05:25:08.039Z,100.00
2022-11-04T05:30:10.703Z,100.00
2022-11-04T05:35:13.790Z,100.00
2022-11-04T05:40:15.493Z,100.00
2022-11-04T05:45:17.294Z,100.00
2022-11-04T05:50:20.288Z,100.00
2022-11-04T05:55:22.630Z,100.00
2022-11-04T06:00:24.981Z,100.00
2022-11-04T06:05:28.123Z,100.00
2022-11-04T06:10:29.790Z,100.00
2022-11-04T06:15:31.753Z,100.00
2022-11-04T06:20:34.728Z,100.00
2022-11-04T06:25:36.361Z,100.00
2022-11-04T06:30:38.245Z,100.00
2022-11-04T06:35:41.395Z,100.00
2022-11-04T06:40:43.093Z,100.00
2022-11-04T06:45:45.256Z,100.00
2022-11-04T06:50:48.759Z,100.00
2022-11-04T06:55:51.690Z,100.00
2022-11-04T07:00:53.939Z,100.00
2022-11-04T07:05:57.892Z,100.00
2022-11-04T07:10:59.999Z,100.00
2022-11-04T07:16:04.978Z,100.00
2022-11-04T07:21:10.250Z,100.00
2022-11-04T07:26:12.574Z,100.00
2022-11-04T07:31:14.827Z,100.00
2022-11-04T07:36:18.709Z,100.00
2022-11-04T07:41:21.338Z,100.00
2022-11-04T07:46:23.070Z,100.00
2022-11-04T07:51:27.280Z,100.00
2022-11-04T07:56:31.628Z,100.00
2022-11-04T08:01:33.473Z,100.00
2022-11-04T08:06:37.164Z,100.00
2022-11-04T08:11:39.153Z,100.00
2022-11-04T08:16:40.848Z,100.00
2022-11-04T08:21:43.865Z,100.00
2022-11-04T08:26:45.928Z,100.00
2022-11-04T08:31:48.043Z,100.00
2022-11-04T08:36:51.010Z,100.00
2022-11-04T08:41:53.429Z,100.00
2022-11-04T08:46:55.504Z,100.00
2022-11-04T08:51:59.306Z,100.00
2022-11-04T08:57:01.422Z,100.00
2022-11-04T09:02:03.172Z,100.00
2022-11-04T09:07:08.316Z,100.00
2022-11-04T09:12:10.997Z,100.00
2022-11-04T09:17:12.994Z,99.33
2022-11-04T09:22:16.573Z,99.08
2022-11-04T09:27:18.862Z,97.34
2022-11-04T09:32:20.531Z,96.98
2022-11-04T09:37:23.610Z,96.86
2022-11-04T09:42:41.796Z,97.33
2022-11-04T09:47:46.030Z,96.74
2022-11-04T09:52:54.573Z,96.55
2022-11-04T09:57:58.779Z,96.42
2022-11-04T10:03:21.902Z,94.49
2022-11-04T10:08:45.298Z,94.16
2022-11-04T10:14:02.437Z,93.45
2022-11-04T10:19:25.296Z,93.91
2022-11-04T10:24:41.197Z,93.10
2022-11-04T10:29:47.356Z,91.96
2022-11-04T10:34:53.949Z,92.30
2022-11-04T10:40:05.859Z,93.73
2022-11-04T10:45:12.845Z,93.07
2022-11-04T10:50:28.895Z,93.33
2022-11-04T10:55:38.768Z,92.57
2022-11-04T11:00:41.532Z,91.95
2022-11-04T11:05:43.634Z,92.76
2022-11-04T11:10:52.078Z,92.74
2022-11-04T11:16:06.536Z,93.22
2022-11-04T11:21:12.490Z,94.50
2022-11-04T11:26:19.323Z,95.17
2022-11-04T11:31:21.480Z,95.75
2022-11-04T11:36:25.112Z,95.17
2022-11-04T11:41:29.197Z,95.45
2022-11-04T11:46:33.335Z,94.45
2022-11-04T11:51:37.034Z,94.43
2022-11-04T11:57:07.218Z,93.87
2022-11-04T12:02:25.964Z,91.78
2022-11-04T12:13:22.963Z,92.12
2022-11-04T12:18:49.493Z,91.80
2022-11-04T12:23:55.952Z,92.00
2022-11-04T12:29:20.568Z,92.20
2022-11-04T12:34:32.757Z,92.23
2022-11-04T12:39:53.286Z,91.97
2022-11-04T12:45:07.862Z,91.97
2022-11-04T12:50:21.978Z,92.15
2022-11-04T12:55:37.246Z,93.61
2022-11-04T13:00:48.209Z,93.18
2022-11-04T13:05:54.366Z,93.46
2022-11-04T13:11:01.760Z,93.95
2022-11-04T13:16:09.751Z,94.65
2022-11-04T13:21:15.613Z,95.17
2022-11-04T13:26:18.263Z,96.07
2022-11-04T13:31:30.752Z,96.68
2022-11-04T13:36:40.888Z,96.94
2022-11-04T13:42:09.758Z,97.30
2022-11-04T13:47:22.249Z,97.35
2022-11-04T13:52:29.351Z,97.14
2022-11-04T13:57:52.250Z,96.68
2022-11-04T14:02:56.100Z,96.63
2022-11-04T14:08:11.071Z,96.73
2022-11-04T14:13:44.571Z,96.39
2022-11-04T14:18:49.896Z,96.84
2022-11-04T14:23:54.406Z,97.72
2022-11-04T14:29:03.602Z,97.18
2022-11-04T14:34:08.088Z,96.92
2022-11-04T14:39:23.185Z,97.90
2022-11-04T14:44:30.717Z,98.78
2022-11-04T14:49:46.980Z,98.79
2022-11-04T14:54:50.011Z,99.16
2022-11-04T14:59:51.704Z,99.72
2022-11-04T15:04:58.778Z,100.00
2022-11-04T15:10:02.598Z,100.00
2022-11-04T15:15:33.154Z,100.00
2022-11-04T15:20:45.050Z,100.00
2022-11-04T15:25:49.065Z,100.00
2022-11-04T15:30:59.863Z,100.00
2022-11-04T15:36:03.514Z,100.00
2022-11-04T15:41:05.676Z,100.00
2022-11-04T15:46:18.025Z,100.00
2022-11-04T15:51:23.533Z,100.00
2022-11-04T15:56:28.034Z,100.00
2022-11-04T16:01:29.864Z,100.00
2022-11-04T16:06:35.977Z,100.00
2022-11-04T16:11:39.196Z,100.00
2022-11-04T16:16:47.947Z,100.00
2022-11-04T16:21:59.471Z,100.00
2022-11-04T16:27:02.028Z,100.00
2022-11-04T16:32:07.607Z,100.00
2022-11-04T16:37:10.937Z,99.56
2022-11-04T16:42:14.317Z,99.30
2022-11-04T16:47:17.708Z,99.02
2022-11-04T16:52:24.126Z,98.79
2022-11-04T16:57:26.661Z,98.84
2022-11-04T17:02:31.170Z,98.59
2022-11-04T17:07:52.143Z,97.56
2022-11-04T17:12:55.786Z,97.67
2022-11-04T17:17:57.422Z,96.32
2022-11-04T17:23:00.868Z,96.44
2022-11-04T17:28:02.838Z,95.78
2022-11-04T17:33:04.926Z,96.10
2022-11-04T17:38:10.031Z,96.38
2022-11-04T17:43:12.880Z,96.13
2022-11-04T17:48:14.944Z,96.24
2022-11-04T17:53:20.614Z,96.18
2022-11-04T17:58:22.259Z,96.19
2022-11-04T18:03:24.276Z,95.85
2022-11-04T18:08:27.310Z,95.46
2022-11-04T18:13:29.432Z,95.51
2022-11-04T18:18:31.302Z,95.74
2022-11-04T18:23:35.003Z,95.14
2022-11-04T18:28:37.364Z,94.84
2022-11-04T18:33:39.079Z,94.66
2022-11-04T18:38:42.089Z,94.51
2022-11-04T18:43:44.031Z,94.58
2022-11-04T18:48:49.058Z,94.47
2022-11-04T18:53:52.864Z,93.90
2022-11-04T18:58:54.915Z,94.08
2022-11-04T19:03:57.817Z,94.00
2022-11-04T19:09:13.344Z,93.62
2022-11-04T19:14:27.090Z,93.55
2022-11-04T19:19:29.142Z,93.29
2022-11-04T19:24:32.267Z,91.76
2022-11-04T19:29:34.327Z,91.67
2022-11-04T19:34:37.496Z,91.94
2022-11-04T19:39:41.585Z,92.07
2022-11-04T19:44:44.247Z,93.38
2022-11-04T19:49:46.295Z,93.38
2022-11-04T19:54:49.968Z,93.16
2022-11-04T19:59:51.737Z,93.19
2022-11-04T20:04:53.609Z,91.53
2022-11-04T20:09:56.700Z,91.11
2022-11-04T20:14:58.706Z,91.41
2022-11-04T20:20:00.918Z,91.42
2022-11-04T20:25:04.687Z,91.00
2022-11-04T20:30:07.619Z,90.67
2022-11-04T20:35:09.459Z,90.92
2022-11-04T20:40:13.623Z,90.91
2022-11-04T20:45:16.391Z,91.45
2022-11-04T20:50:18.232Z,91.85
2022-11-04T20:55:22.493Z,91.70
2022-11-04T21:00:24.689Z,91.94
2022-11-04T21:05:27.016Z,92.96
2022-11-04T21:10:33.041Z,92.60
2022-11-04T21:15:36.593Z,92.61
2022-11-04T21:20:45.268Z,93.39
2022-11-04T21:25:51.593Z,92.45
2022-11-04T21:30:54.715Z,93.21
2022-11-04T21:36:02.678Z,93.59
2022-11-04T21:41:09.910Z,93.47
2022-11-04T21:46:14.803Z,93.41
2022-11-04T21:51:23.509Z,93.82
2022-11-04T21:56:33.041Z,93.83
2022-11-04T22:01:38.366Z,93.99
2022-11-04T22:06:41.382Z,94.27
2022-11-04T22:11:52.840Z,93.85
2022-11-04T22:17:06.975Z,94.34
2022-11-04T22:22:10.673Z,94.44
2022-11-04T22:27:13.892Z,94.26
2022-11-04T22:32:16.127Z,94.00
2022-11-04T22:37:18.171Z,94.31
2022-11-04T22:42:21.548Z,94.13
2022-11-04T22:47:23.583Z,94.29
2022-11-04T22:52:25.683Z,94.09
2022-11-04T22:57:28.987Z,94.37
2022-11-04T23:02:36.634Z,94.04
2022-11-04T23:07:39.890Z,94.36
2022-11-04T23:12:43.849Z,94.32
2022-11-04T23:17:46.432Z,94.97
2022-11-04T23:22:48.463Z,95.21
2022-11-04T23:27:57.142Z,96.39
2022-11-04T23:33:01.131Z,96.92
2022-11-04T23:38:03.887Z,97.54
2022-11-04T23:43:07.529Z,97.72
2022-11-04T23:48:10.766Z,98.08
2022-11-04T23:53:13.764Z,98.24
2022-11-04T23:58:17.234Z,98.67
